Terminal Aerodrome Forecast
Issued by NWS

Home | Current Version | Previous Version | Text Only | Print | Product List | Glossary On
Versions: 1 2 3 4 5 6 7 8 9 10 11 12 13 14 15 16
000
FTUS45 KTFX 160520
TAFLWT
TAF
KLWT 160520Z 1606/1706 31008KT 3SM -SN SCT008 OVC030
     FM161200 30006KT 5SM BR VCSH SCT015 OVC030
     FM161500 29006KT P6SM SCT015 OVC030 PROB30 1615/1620 2SM -SN
      OVC010
     FM170000 VRB05KT P6SM SCT035 BKN045
     FM170400 VRB04KT P6SM FEW050 SCT080=

USA.gov is the U.S. government's official web portal to all federal, state and local government web resources and services.